createdAt,value
2022-10-04T14:11:02.086Z,93.30
2022-10-04T14:14:10.162Z,94.00
2022-10-04T14:17:06.896Z,96.10
2022-10-04T14:20:00.634Z,96.10
2022-10-04T14:22:55.950Z,97.20
2022-10-04T14:26:01.043Z,97.20
2022-10-04T14:28:52.412Z,96.20
2022-10-04T14:31:52.723Z,96.30
2022-10-04T14:34:56.867Z,97.70
2022-10-04T14:37:49.962Z,97.00
2022-10-04T14:40:37.339Z,95.20
2022-10-04T14:43:24.789Z,94.20
2022-10-04T14:46:08.648Z,93.10
2022-10-04T14:48:54.541Z,94.20
2022-10-04T14:51:40.766Z,92.50
2022-10-04T14:54:13.506Z,93.90
2022-10-04T14:56:53.456Z,94.70
2022-10-04T14:59:36.650Z,91.20
2022-10-04T15:02:23.892Z,87.00
2022-10-04T15:05:28.603Z,87.50
2022-10-04T15:08:12.377Z,87.50
2022-10-04T15:10:50.898Z,87.50
2022-10-04T15:13:26.240Z,88.10
2022-10-04T15:16:08.922Z,88.80
2022-10-04T15:18:52.075Z,88.30
2022-10-04T15:21:44.062Z,89.70
2022-10-04T15:24:25.732Z,90.60
2022-10-04T15:27:39.337Z,92.50
2022-10-04T15:30:22.027Z,94.70
2022-10-04T15:33:07.218Z,96.30
2022-10-04T15:35:48.668Z,97.70
2022-10-04T15:38:25.406Z,99.00
2022-10-04T15:41:03.089Z,99.80
2022-10-04T15:43:35.879Z,99.80
2022-10-04T15:46:27.677Z,99.80
2022-10-04T15:49:22.692Z,99.80
2022-10-04T15:52:21.783Z,99.80
2022-10-04T15:55:18.600Z,99.80
2022-10-04T15:58:25.909Z,99.80
2022-10-04T16:01:07.641Z,99.80
2022-10-04T16:03:47.089Z,99.80
2022-10-04T16:06:24.352Z,99.80
2022-10-04T16:09:15.001Z,99.80
2022-10-04T16:12:05.826Z,99.80
2022-10-04T16:15:02.311Z,99.80
2022-10-04T16:17:46.443Z,99.80
2022-10-04T16:20:26.123Z,99.80
2022-10-04T16:23:24.987Z,99.80
2022-10-04T16:25:54.084Z,99.80
2022-10-04T16:28:49.851Z,99.80
2022-10-04T16:31:49.825Z,99.80
2022-10-04T16:34:35.001Z,99.80
2022-10-04T16:37:17.185Z,99.80
2022-10-04T16:40:05.452Z,99.80
2022-10-04T16:42:48.947Z,99.80
2022-10-04T16:45:42.563Z,99.80
2022-10-04T16:48:26.963Z,99.80
2022-10-04T16:51:23.932Z,99.80
2022-10-04T16:53:59.681Z,99.80
2022-10-04T16:56:31.871Z,99.80
2022-10-04T16:59:02.180Z,99.80
2022-10-04T17:02:00.529Z,99.80
2022-10-04T17:04:49.295Z,99.80
2022-10-04T17:07:27.098Z,99.80
2022-10-04T17:10:02.603Z,99.80
2022-10-04T17:12:37.704Z,99.80
